Time,TemperatureF,DewpointF,PressureIn,WindDirection,WindDirectionDegrees,WindSpeedMPH,WindSpeedGustMPH,Humidity,HourlyPrecipIn,Conditions,Clouds,dailyrainin,SoftwareType,DateUTC
2013-01-23 00:22:00,30.0,-27.0,-100.00,NNW,339,1.0,7.0,7,0.00,,,0.00,,2013-01-23 07:22:00,
2013-01-23 00:33:00,30.0,-27.0,-100.00,NNW,339,1.0,7.0,7,0.00,,,0.00,,2013-01-23 07:33:00,
2013-01-23 00:42:00,30.0,-27.0,-100.00,NNW,339,1.0,7.0,7,0.00,,,0.00,,2013-01-23 07:42:00,
2013-01-23 00:52:00,30.0,-27.0,-100.00,NNW,339,1.0,7.0,7,0.00,,,0.00,,2013-01-23 07:52:00,
2013-01-23 01:22:00,31.0,-23.0,-100.00,NNW,340,2.0,5.0,8,0.00,,,0.00,,2013-01-23 08:22:00,
2013-01-23 01:33:00,31.0,-23.0,-100.00,NNW,340,2.0,5.0,8,0.00,,,0.00,,2013-01-23 08:33:00,
2013-01-23 01:42:00,31.0,-23.0,-100.00,NNW,340,2.0,5.0,8,0.00,,,0.00,,2013-01-23 08:42:00,
2013-01-23 01:52:00,31.0,-23.0,-100.00,NNW,340,2.0,5.0,8,0.00,,,0.00,,2013-01-23 08:52:00,
2013-01-23 02:22:00,29.0,-25.0,-100.00,NW,325,2.0,7.0,8,0.00,,,0.00,,2013-01-23 09:22:00,
2013-01-23 02:32:00,29.0,-25.0,-100.00,NW,325,2.0,7.0,8,0.00,,,0.00,,2013-01-23 09:32:00,
2013-01-23 02:43:00,29.0,-25.0,-100.00,NW,325,2.0,7.0,8,0.00,,,0.00,,2013-01-23 09:43:00,
2013-01-23 02:52:00,29.0,-25.0,-100.00,NW,325,2.0,7.0,8,0.00,,,0.00,,2013-01-23 09:52:00,
2013-01-23 03:23:00,34.0,-26.0,-100.00,WNW,286,6.0,11.0,6,0.00,,,0.00,,2013-01-23 10:23:00,
2013-01-23 03:33:00,34.0,-26.0,-100.00,WNW,286,6.0,11.0,6,0.00,,,0.00,,2013-01-23 10:33:00,
2013-01-23 03:43:00,34.0,-26.0,-100.00,WNW,286,6.0,11.0,6,0.00,,,0.00,,2013-01-23 10:43:00,
2013-01-23 03:52:00,34.0,-26.0,-100.00,WNW,286,6.0,11.0,6,0.00,,,0.00,,2013-01-23 10:52:00,
2013-01-23 04:23:00,32.0,-28.0,-100.00,NW,325,2.0,8.0,6,0.00,,,0.00,,2013-01-23 11:23:00,
2013-01-23 04:33:00,32.0,-28.0,-100.00,NW,325,2.0,8.0,6,0.00,,,0.00,,2013-01-23 11:33:00,
2013-01-23 04:43:00,32.0,-28.0,-100.00,NW,325,2.0,8.0,6,0.00,,,0.00,,2013-01-23 11:43:00,
2013-01-23 04:53:00,32.0,-28.0,-100.00,NW,325,2.0,8.0,6,0.00,,,0.00,,2013-01-23 11:53:00,
2013-01-23 05:22:00,31.0,-29.0,-100.00,NNW,332,3.0,7.0,6,0.00,,,0.00,,2013-01-23 12:22:00,
2013-01-23 05:33:00,31.0,-29.0,-100.00,NNW,332,3.0,7.0,6,0.00,,,0.00,,2013-01-23 12:33:00,
2013-01-23 05:43:00,31.0,-29.0,-100.00,NNW,332,3.0,7.0,6,0.00,,,0.00,,2013-01-23 12:43:00,
2013-01-23 05:52:00,31.0,-29.0,-100.00,NNW,332,3.0,7.0,6,0.00,,,0.00,,2013-01-23 12:52:00,
2013-01-23 06:23:00,33.0,-31.0,-100.00,WNW,303,3.0,6.0,5,0.00,,,0.00,,2013-01-23 13:23:00,
2013-01-23 06:33:00,33.0,-31.0,-100.00,WNW,303,3.0,6.0,5,0.00,,,0.00,,2013-01-23 13:33:00,
2013-01-23 06:42:00,33.0,-31.0,-100.00,WNW,303,3.0,6.0,5,0.00,,,0.00,,2013-01-23 13:42:00,
2013-01-23 06:52:00,33.0,-31.0,-100.00,WNW,303,3.0,6.0,5,0.00,,,0.00,,2013-01-23 13:52:00,
2013-01-23 07:23:00,30.0,-29.0,-100.00,NNW,345,2.0,4.0,6,0.00,,,0.00,,2013-01-23 14:23:00,
2013-01-23 07:33:00,30.0,-29.0,-100.00,NNW,345,2.0,4.0,6,0.00,,,0.00,,2013-01-23 14:33:00,
2013-01-23 07:43:00,30.0,-29.0,-100.00,NNW,345,2.0,4.0,6,0.00,,,0.00,,2013-01-23 14:43:00,
2013-01-23 07:53:00,30.0,-29.0,-100.00,NNW,345,2.0,4.0,6,0.00,,,0.00,,2013-01-23 14:53:00,
2013-01-23 08:23:00,33.0,-27.0,-100.00,NNW,332,1.0,3.0,6,0.00,,,0.00,,2013-01-23 15:23:00,
2013-01-23 08:33:00,33.0,-27.0,-100.00,NNW,332,1.0,3.0,6,0.00,,,0.00,,2013-01-23 15:33:00,
2013-01-23 08:43:00,33.0,-27.0,-100.00,NNW,332,1.0,3.0,6,0.00,,,0.00,,2013-01-23 15:43:00,
2013-01-23 08:53:00,33.0,-27.0,-100.00,NNW,332,1.0,3.0,6,0.00,,,0.00,,2013-01-23 15:53:00,
2013-01-23 09:23:00,43.0,-20.0,-100.00,West,259,1.0,4.0,6,0.00,,,0.00,,2013-01-23 16:23:00,
2013-01-23 09:33:00,43.0,-20.0,-100.00,West,259,1.0,4.0,6,0.00,,,0.00,,2013-01-23 16:33:00,
2013-01-23 09:42:00,43.0,-20.0,-100.00,West,259,1.0,4.0,6,0.00,,,0.00,,2013-01-23 16:42:00,
2013-01-23 09:52:00,43.0,-20.0,-100.00,West,259,1.0,4.0,6,0.00,,,0.00,,2013-01-23 16:52:00,
2013-01-23 10:23:00,44.0,-13.0,-100.00,East,85,4.0,8.0,8,0.00,,,0.00,,2013-01-23 17:23:00,
2013-01-23 10:33:00,44.0,-13.0,-100.00,East,85,4.0,8.0,8,0.00,,,0.00,,2013-01-23 17:33:00,
2013-01-23 10:42:00,44.0,-13.0,-100.00,East,85,4.0,8.0,8,0.00,,,0.00,,2013-01-23 17:42:00,
2013-01-23 10:52:00,44.0,-13.0,-100.00,East,85,4.0,8.0,8,0.00,,,0.00,,2013-01-23 17:52:00,
2013-01-23 11:23:00,49.0,-12.0,-100.00,East,99,4.0,8.0,7,0.00,,,0.00,,2013-01-23 18:23:00,
2013-01-23 11:33:00,49.0,-12.0,-100.00,East,99,4.0,8.0,7,0.00,,,0.00,,2013-01-23 18:33:00,
2013-01-23 11:43:00,49.0,-12.0,-100.00,East,99,4.0,8.0,7,0.00,,,0.00,,2013-01-23 18:43:00,
2013-01-23 11:53:00,49.0,-12.0,-100.00,East,99,4.0,8.0,7,0.00,,,0.00,,2013-01-23 18:53:00,
2013-01-23 12:23:00,50.0,-12.0,-100.00,East,99,5.0,11.0,7,0.00,,,0.00,,2013-01-23 19:23:00,
2013-01-23 12:33:00,50.0,-12.0,-100.00,East,99,5.0,11.0,7,0.00,,,0.00,,2013-01-23 19:33:00,
2013-01-23 12:43:00,50.0,-12.0,-100.00,East,99,5.0,11.0,7,0.00,,,0.00,,2013-01-23 19:43:00,
2013-01-23 12:53:00,50.0,-12.0,-100.00,East,99,5.0,11.0,7,0.00,,,0.00,,2013-01-23 19:53:00,
2013-01-23 13:23:00,52.0,-10.0,-100.00,ENE,73,4.0,11.0,7,0.00,,,0.00,,2013-01-23 20:23:00,
2013-01-23 13:33:00,52.0,-10.0,-100.00,ENE,73,4.0,11.0,7,0.00,,,0.00,,2013-01-23 20:33:00,
2013-01-23 13:43:00,52.0,-10.0,-100.00,ENE,73,4.0,11.0,7,0.00,,,0.00,,2013-01-23 20:43:00,
2013-01-23 13:53:00,52.0,-10.0,-100.00,ENE,73,4.0,11.0,7,0.00,,,0.00,,2013-01-23 20:53:00,
2013-01-23 14:23:00,54.0,-9.0,-100.00,NE,56,3.0,9.0,7,0.00,,,0.00,,2013-01-23 21:23:00,
2013-01-23 14:33:00,54.0,-9.0,-100.00,NE,56,3.0,9.0,7,0.00,,,0.00,,2013-01-23 21:33:00,
2013-01-23 14:43:00,54.0,-9.0,-100.00,NE,56,3.0,9.0,7,0.00,,,0.00,,2013-01-23 21:43:00,
2013-01-23 14:52:00,54.0,-9.0,-100.00,NE,56,3.0,9.0,7,0.00,,,0.00,,2013-01-23 21:52:00,
2013-01-23 15:23:00,52.0,-13.0,-100.00,ESE,110,4.0,9.0,6,0.00,,,0.00,,2013-01-23 22:23:00,
2013-01-23 15:33:00,52.0,-13.0,-100.00,ESE,110,4.0,9.0,6,0.00,,,0.00,,2013-01-23 22:33:00,
2013-01-23 15:42:00,52.0,-13.0,-100.00,ESE,110,4.0,9.0,6,0.00,,,0.00,,2013-01-23 22:42:00,
2013-01-23 15:52:00,52.0,-13.0,-100.00,ESE,110,4.0,9.0,6,0.00,,,0.00,,2013-01-23 22:52:00,
2013-01-23 16:23:00,51.0,-11.0,-100.00,WNW,285,4.0,8.0,7,0.00,,,0.00,,2013-01-23 23:23:00,
2013-01-23 16:33:00,51.0,-11.0,-100.00,WNW,285,4.0,8.0,7,0.00,,,0.00,,2013-01-23 23:33:00,
2013-01-23 16:43:00,51.0,-11.0,-100.00,WNW,285,4.0,8.0,7,0.00,,,0.00,,2013-01-23 23:43:00,
2013-01-23 16:53:00,51.0,-11.0,-100.00,WNW,285,4.0,8.0,7,0.00,,,0.00,,2013-01-23 23:53:00,
2013-01-23 17:22:00,48.0,-16.0,-100.00,NW,318,2.0,11.0,6,0.00,,,0.00,,2013-01-24 00:22:00,
2013-01-23 17:32:00,48.0,-16.0,-100.00,NW,318,2.0,11.0,6,0.00,,,0.00,,2013-01-24 00:32:00,
2013-01-23 17:42:00,48.0,-16.0,-100.00,NW,318,2.0,11.0,6,0.00,,,0.00,,2013-01-24 00:42:00,
2013-01-23 17:53:00,48.0,-16.0,-100.00,NW,318,2.0,11.0,6,0.00,,,0.00,,2013-01-24 00:53:00,
2013-01-23 18:23:00,43.0,-17.0,-100.00,WNW,292,2.0,13.0,7,0.00,,,0.00,,2013-01-24 01:23:00,
2013-01-23 18:33:00,43.0,-17.0,-100.00,WNW,292,2.0,13.0,7,0.00,,,0.00,,2013-01-24 01:33:00,
2013-01-23 18:42:00,43.0,-17.0,-100.00,WNW,292,2.0,13.0,7,0.00,,,0.00,,2013-01-24 01:42:00,
2013-01-23 18:52:00,43.0,-17.0,-100.00,WNW,292,2.0,13.0,7,0.00,,,0.00,,2013-01-24 01:52:00,
2013-01-23 19:22:00,46.0,-15.0,-100.00,WSW,255,9.0,19.0,7,0.00,,,0.00,,2013-01-24 02:22:00,
2013-01-23 19:33:00,46.0,-15.0,-100.00,WSW,255,9.0,19.0,7,0.00,,,0.00,,2013-01-24 02:33:00,
2013-01-23 19:42:00,46.0,-15.0,-100.00,WSW,255,9.0,19.0,7,0.00,,,0.00,,2013-01-24 02:42:00,
2013-01-23 19:52:00,46.0,-15.0,-100.00,WSW,255,9.0,19.0,7,0.00,,,0.00,,2013-01-24 02:52:00,
2013-01-23 20:22:00,45.0,-10.0,-100.00,West,274,7.0,18.0,9,0.00,,,0.00,,2013-01-24 03:22:00,
2013-01-23 20:33:00,45.0,-10.0,-100.00,West,274,7.0,18.0,9,0.00,,,0.00,,2013-01-24 03:33:00,
2013-01-23 20:43:00,45.0,-10.0,-100.00,West,274,7.0,18.0,9,0.00,,,0.00,,2013-01-24 03:43:00,
2013-01-23 20:52:00,45.0,-10.0,-100.00,West,274,7.0,18.0,9,0.00,,,0.00,,2013-01-24 03:52:00,
2013-01-23 21:22:00,39.0,-13.0,-100.00,North,9,1.0,13.0,10,0.00,,,0.00,,2013-01-24 04:22:00,
2013-01-23 21:32:00,39.0,-13.0,-100.00,North,9,1.0,13.0,10,0.00,,,0.00,,2013-01-24 04:32:00,
2013-01-23 21:42:00,39.0,-13.0,-100.00,North,9,1.0,13.0,10,0.00,,,0.00,,2013-01-24 04:42:00,
2013-01-23 21:52:00,39.0,-13.0,-100.00,North,9,1.0,13.0,10,0.00,,,0.00,,2013-01-24 04:52:00,
2013-01-23 22:22:00,40.0,-8.0,-100.00,WNW,289,4.0,9.0,12,0.00,,,0.00,,2013-01-24 05:22:00,
2013-01-23 22:33:00,40.0,-8.0,-100.00,WNW,289,4.0,9.0,12,0.00,,,0.00,,2013-01-24 05:33:00,
2013-01-23 22:42:00,40.0,-8.0,-100.00,WNW,289,4.0,9.0,12,0.00,,,0.00,,2013-01-24 05:42:00,
2013-01-23 22:52:00,40.0,-8.0,-100.00,WNW,289,4.0,9.0,12,0.00,,,0.00,,2013-01-24 05:52:00,
2013-01-23 23:22:00,38.0,-10.0,-100.00,North,354,2.0,8.0,12,0.00,,,0.00,,2013-01-24 06:22:00,
2013-01-23 23:32:00,38.0,-10.0,-100.00,North,354,2.0,8.0,12,0.00,,,0.00,,2013-01-24 06:32:00,
2013-01-23 23:42:00,38.0,-10.0,-100.00,North,354,2.0,8.0,12,0.00,,,0.00,,2013-01-24 06:42:00,
2013-01-23 23:52:00,38.0,-10.0,-100.00,North,354,2.0,8.0,12,0.00,,,0.00,,2013-01-24 06:52:00,